sensor_id;sensor_type;location;lat;lon;timestamp;P1;durP1;ratioP1;P2;durP2;ratioP2
15944;SDS011;30172;48.832;8.732;2023-02-07T00:00:35;15.03;;;10.03;;
15944;SDS011;30172;48.832;8.732;2023-02-07T00:03:00;13.93;;;8.70;;
15944;SDS011;30172;48.832;8.732;2023-02-07T00:05:26;15.13;;;9.77;;
15944;SDS011;30172;48.832;8.732;2023-02-07T00:07:52;13.37;;;9.90;;
15944;SDS011;30172;48.832;8.732;2023-02-07T00:10:17;16.87;;;10.50;;
15944;SDS011;30172;48.832;8.732;2023-02-07T00:12:42;14.60;;;9.63;;
15944;SDS011;30172;48.832;8.732;2023-02-07T00:15:08;13.27;;;9.60;;
15944;SDS011;30172;48.832;8.732;2023-02-07T00:17:33;15.53;;;10.47;;
15944;SDS011;30172;48.832;8.732;2023-02-07T00:19:59;14.13;;;10.33;;
15944;SDS011;30172;48.832;8.732;2023-02-07T00:22:24;14.27;;;9.53;;
15944;SDS011;30172;48.832;8.732;2023-02-07T00:24:49;12.77;;;9.73;;
15944;SDS011;30172;48.832;8.732;2023-02-07T00:27:15;13.20;;;10.07;;
15944;SDS011;30172;48.832;8.732;2023-02-07T00:29:40;14.23;;;9.87;;
15944;SDS011;30172;48.832;8.732;2023-02-07T00:32:05;16.77;;;10.47;;
15944;SDS011;30172;48.832;8.732;2023-02-07T00:34:31;12.70;;;9.67;;
15944;SDS011;30172;48.832;8.732;2023-02-07T00:37:00;17.07;;;10.63;;
15944;SDS011;30172;48.832;8.732;2023-02-07T00:39:25;15.50;;;10.20;;
15944;SDS011;30172;48.832;8.732;2023-02-07T00:41:50;15.77;;;10.73;;
15944;SDS011;30172;48.832;8.732;2023-02-07T00:44:16;11.97;;;9.23;;
15944;SDS011;30172;48.832;8.732;2023-02-07T00:46:41;13.90;;;9.80;;
15944;SDS011;30172;48.832;8.732;2023-02-07T00:49:06;14.27;;;10.07;;
15944;SDS011;30172;48.832;8.732;2023-02-07T00:51:32;13.77;;;9.93;;
15944;SDS011;30172;48.832;8.732;2023-02-07T00:53:58;12.43;;;9.53;;
15944;SDS011;30172;48.832;8.732;2023-02-07T00:56:24;15.50;;;10.23;;
15944;SDS011;30172;48.832;8.732;2023-02-07T00:58:51;14.60;;;9.50;;
15944;SDS011;30172;48.832;8.732;2023-02-07T01:01:16;14.87;;;9.73;;
15944;SDS011;30172;48.832;8.732;2023-02-07T01:03:42;14.83;;;9.80;;
15944;SDS011;30172;48.832;8.732;2023-02-07T01:06:07;12.90;;;9.77;;
15944;SDS011;30172;48.832;8.732;2023-02-07T01:08:33;13.50;;;10.23;;
15944;SDS011;30172;48.832;8.732;2023-02-07T01:11:03;15.87;;;10.17;;
15944;SDS011;30172;48.832;8.732;2023-02-07T01:13:31;12.27;;;9.10;;
15944;SDS011;30172;48.832;8.732;2023-02-07T01:15:57;15.00;;;10.13;;
15944;SDS011;30172;48.832;8.732;2023-02-07T01:18:22;14.93;;;9.30;;
15944;SDS011;30172;48.832;8.732;2023-02-07T01:20:48;14.43;;;9.77;;
15944;SDS011;30172;48.832;8.732;2023-02-07T01:23:13;13.60;;;9.33;;
15944;SDS011;30172;48.832;8.732;2023-02-07T01:25:39;11.77;;;9.17;;
15944;SDS011;30172;48.832;8.732;2023-02-07T01:28:05;12.53;;;8.33;;
15944;SDS011;30172;48.832;8.732;2023-02-07T01:30:31;14.03;;;9.50;;
15944;SDS011;30172;48.832;8.732;2023-02-07T01:32:56;14.57;;;9.63;;
15944;SDS011;30172;48.832;8.732;2023-02-07T01:35:22;13.33;;;8.90;;
15944;SDS011;30172;48.832;8.732;2023-02-07T01:37:47;11.57;;;8.47;;
15944;SDS011;30172;48.832;8.732;2023-02-07T01:40:13;14.00;;;9.43;;
15944;SDS011;30172;48.832;8.732;2023-02-07T01:42:38;14.40;;;9.17;;
15944;SDS011;30172;48.832;8.732;2023-02-07T01:47:50;14.60;;;8.43;;
15944;SDS011;30172;48.832;8.732;2023-02-07T01:50:16;11.77;;;8.67;;
15944;SDS011;30172;48.832;8.732;2023-02-07T01:52:42;13.83;;;9.20;;
15944;SDS011;30172;48.832;8.732;2023-02-07T01:55:12;15.60;;;8.93;;
15944;SDS011;30172;48.832;8.732;2023-02-07T01:57:39;11.90;;;9.10;;
15944;SDS011;30172;48.832;8.732;2023-02-07T02:00:05;16.57;;;9.83;;
15944;SDS011;30172;48.832;8.732;2023-02-07T02:02:31;16.70;;;9.73;;
15944;SDS011;30172;48.832;8.732;2023-02-07T02:04:58;13.97;;;9.73;;
15944;SDS011;30172;48.832;8.732;2023-02-07T02:07:24;15.33;;;10.53;;
15944;SDS011;30172;48.832;8.732;2023-02-07T02:09:50;13.67;;;9.73;;
15944;SDS011;30172;48.832;8.732;2023-02-07T02:15:13;16.57;;;10.17;;
15944;SDS011;30172;48.832;8.732;2023-02-07T02:20:28;17.50;;;10.53;;
15944;SDS011;30172;48.832;8.732;2023-02-07T02:34:46;19.17;;;11.37;;
15944;SDS011;30172;48.832;8.732;2023-02-07T02:37:41;20.57;;;12.07;;
15944;SDS011;30172;48.832;8.732;2023-02-07T02:42:53;19.03;;;11.90;;
15944;SDS011;30172;48.832;8.732;2023-02-07T02:45:24;18.93;;;12.07;;
15944;SDS011;30172;48.832;8.732;2023-02-07T02:47:53;21.57;;;11.90;;
15944;SDS011;30172;48.832;8.732;2023-02-07T02:50:20;17.63;;;11.93;;
15944;SDS011;30172;48.832;8.732;2023-02-07T02:52:48;17.13;;;11.87;;
15944;SDS011;30172;48.832;8.732;2023-02-07T02:55:14;17.47;;;12.23;;
15944;SDS011;30172;48.832;8.732;2023-02-07T03:03:33;19.70;;;12.43;;
15944;SDS011;30172;48.832;8.732;2023-02-07T03:11:37;19.87;;;13.57;;
15944;SDS011;30172;48.832;8.732;2023-02-07T03:14:08;19.20;;;13.33;;
15944;SDS011;30172;48.832;8.732;2023-02-07T03:16:41;21.43;;;14.50;;
15944;SDS011;30172;48.832;8.732;2023-02-07T03:19:14;23.33;;;13.50;;
15944;SDS011;30172;48.832;8.732;2023-02-07T03:21:43;20.53;;;13.83;;
15944;SDS011;30172;48.832;8.732;2023-02-07T03:24:19;21.03;;;13.03;;
15944;SDS011;30172;48.832;8.732;2023-02-07T03:26:46;19.83;;;12.97;;
15944;SDS011;30172;48.832;8.732;2023-02-07T03:29:13;21.23;;;12.10;;
15944;SDS011;30172;48.832;8.732;2023-02-07T03:31:39;19.57;;;13.60;;
15944;SDS011;30172;48.832;8.732;2023-02-07T03:34:10;20.77;;;13.87;;
15944;SDS011;30172;48.832;8.732;2023-02-07T03:36:45;19.27;;;13.77;;
15944;SDS011;30172;48.832;8.732;2023-02-07T03:39:15;19.83;;;13.60;;
15944;SDS011;30172;48.832;8.732;2023-02-07T03:41:52;20.97;;;14.00;;
15944;SDS011;30172;48.832;8.732;2023-02-07T03:44:20;21.83;;;14.10;;
15944;SDS011;30172;48.832;8.732;2023-02-07T03:46:48;21.13;;;14.37;;
15944;SDS011;30172;48.832;8.732;2023-02-07T03:49:14;22.07;;;13.67;;
15944;SDS011;30172;48.832;8.732;2023-02-07T03:51:41;21.40;;;14.50;;
15944;SDS011;30172;48.832;8.732;2023-02-07T03:54:09;23.33;;;14.67;;
15944;SDS011;30172;48.832;8.732;2023-02-07T03:56:35;23.30;;;14.50;;
15944;SDS011;30172;48.832;8.732;2023-02-07T03:59:01;19.93;;;14.13;;
15944;SDS011;30172;48.832;8.732;2023-02-07T04:01:26;19.70;;;13.43;;
15944;SDS011;30172;48.832;8.732;2023-02-07T04:03:52;20.37;;;13.83;;
15944;SDS011;30172;48.832;8.732;2023-02-07T04:06:17;19.63;;;13.43;;
15944;SDS011;30172;48.832;8.732;2023-02-07T04:08:42;23.23;;;13.37;;
15944;SDS011;30172;48.832;8.732;2023-02-07T04:11:08;24.80;;;14.83;;
15944;SDS011;30172;48.832;8.732;2023-02-07T04:13:33;19.33;;;13.73;;
15944;SDS011;30172;48.832;8.732;2023-02-07T04:15:58;22.83;;;15.10;;
15944;SDS011;30172;48.832;8.732;2023-02-07T04:18:24;22.97;;;14.03;;
15944;SDS011;30172;48.832;8.732;2023-02-07T04:20:49;21.20;;;13.90;;
15944;SDS011;30172;48.832;8.732;2023-02-07T04:23:14;20.37;;;14.20;;
15944;SDS011;30172;48.832;8.732;2023-02-07T04:25:40;23.60;;;14.40;;
15944;SDS011;30172;48.832;8.732;2023-02-07T04:28:05;19.63;;;14.17;;
15944;SDS011;30172;48.832;8.732;2023-02-07T04:30:31;24.67;;;14.70;;
15944;SDS011;30172;48.832;8.732;2023-02-07T04:32:57;22.80;;;14.50;;
15944;SDS011;30172;48.832;8.732;2023-02-07T04:35:23;19.47;;;13.73;;
15944;SDS011;30172;48.832;8.732;2023-02-07T04:37:48;19.93;;;14.57;;
15944;SDS011;30172;48.832;8.732;2023-02-07T04:40:13;19.27;;;14.13;;
15944;SDS011;30172;48.832;8.732;2023-02-07T04:42:39;22.17;;;14.67;;
15944;SDS011;30172;48.832;8.732;2023-02-07T04:45:04;21.70;;;15.13;;
15944;SDS011;30172;48.832;8.732;2023-02-07T04:47:31;22.77;;;14.93;;
15944;SDS011;30172;48.832;8.732;2023-02-07T04:49:56;19.93;;;13.77;;
15944;SDS011;30172;48.832;8.732;2023-02-07T04:52:21;22.77;;;14.67;;
15944;SDS011;30172;48.832;8.732;2023-02-07T04:54:47;21.17;;;14.73;;
15944;SDS011;30172;48.832;8.732;2023-02-07T04:57:12;18.30;;;13.97;;
15944;SDS011;30172;48.832;8.732;2023-02-07T04:59:37;21.87;;;15.27;;
15944;SDS011;30172;48.832;8.732;2023-02-07T05:02:03;25.10;;;15.00;;
15944;SDS011;30172;48.832;8.732;2023-02-07T05:04:28;23.53;;;15.30;;
15944;SDS011;30172;48.832;8.732;2023-02-07T05:06:54;21.77;;;15.23;;
15944;SDS011;30172;48.832;8.732;2023-02-07T05:09:19;20.77;;;15.10;;
15944;SDS011;30172;48.832;8.732;2023-02-07T05:11:45;20.77;;;14.73;;
15944;SDS011;30172;48.832;8.732;2023-02-07T05:14:10;20.03;;;14.23;;
15944;SDS011;30172;48.832;8.732;2023-02-07T05:16:35;23.07;;;15.03;;
15944;SDS011;30172;48.832;8.732;2023-02-07T05:19:01;21.50;;;15.40;;
15944;SDS011;30172;48.832;8.732;2023-02-07T05:21:26;20.17;;;14.40;;
15944;SDS011;30172;48.832;8.732;2023-02-07T05:23:51;22.67;;;14.80;;
15944;SDS011;30172;48.832;8.732;2023-02-07T05:26:17;21.63;;;15.63;;
15944;SDS011;30172;48.832;8.732;2023-02-07T05:28:42;23.90;;;16.03;;
15944;SDS011;30172;48.832;8.732;2023-02-07T05:31:08;25.13;;;15.87;;
15944;SDS011;30172;48.832;8.732;2023-02-07T05:33:34;22.10;;;14.83;;
15944;SDS011;30172;48.832;8.732;2023-02-07T05:35:59;23.10;;;16.43;;
15944;SDS011;30172;48.832;8.732;2023-02-07T05:38:26;19.93;;;14.30;;
15944;SDS011;30172;48.832;8.732;2023-02-07T05:40:51;25.33;;;15.90;;
15944;SDS011;30172;48.832;8.732;2023-02-07T05:43:16;23.97;;;14.97;;
15944;SDS011;30172;48.832;8.732;2023-02-07T05:45:42;22.50;;;15.27;;
15944;SDS011;30172;48.832;8.732;2023-02-07T05:48:09;20.23;;;14.97;;
15944;SDS011;30172;48.832;8.732;2023-02-07T05:50:35;19.47;;;15.13;;
15944;SDS011;30172;48.832;8.732;2023-02-07T05:53:01;21.20;;;14.67;;
15944;SDS011;30172;48.832;8.732;2023-02-07T05:55:26;20.37;;;15.57;;
15944;SDS011;30172;48.832;8.732;2023-02-07T05:57:51;22.77;;;15.77;;
15944;SDS011;30172;48.832;8.732;2023-02-07T06:00:17;24.50;;;16.37;;
15944;SDS011;30172;48.832;8.732;2023-02-07T06:02:43;24.63;;;17.63;;
15944;SDS011;30172;48.832;8.732;2023-02-07T06:05:10;26.43;;;16.77;;
15944;SDS011;30172;48.832;8.732;2023-02-07T06:07:36;24.13;;;16.10;;
15944;SDS011;30172;48.832;8.732;2023-02-07T06:10:02;27.57;;;16.07;;
15944;SDS011;30172;48.832;8.732;2023-02-07T06:12:29;23.13;;;15.90;;
15944;SDS011;30172;48.832;8.732;2023-02-07T06:14:54;24.00;;;16.57;;
15944;SDS011;30172;48.832;8.732;2023-02-07T06:17:20;24.53;;;16.00;;
15944;SDS011;30172;48.832;8.732;2023-02-07T06:19:45;26.53;;;16.60;;
15944;SDS011;30172;48.832;8.732;2023-02-07T06:22:10;25.53;;;17.10;;
15944;SDS011;30172;48.832;8.732;2023-02-07T06:24:36;23.03;;;15.87;;
15944;SDS011;30172;48.832;8.732;2023-02-07T06:27:01;23.80;;;16.93;;
15944;SDS011;30172;48.832;8.732;2023-02-07T06:29:26;28.17;;;16.47;;
15944;SDS011;30172;48.832;8.732;2023-02-07T06:31:52;24.00;;;17.23;;
15944;SDS011;30172;48.832;8.732;2023-02-07T06:34:17;24.47;;;15.90;;
15944;SDS011;30172;48.832;8.732;2023-02-07T06:36:42;25.80;;;16.40;;
15944;SDS011;30172;48.832;8.732;2023-02-07T06:39:07;23.97;;;15.97;;
15944;SDS011;30172;48.832;8.732;2023-02-07T06:41:33;21.77;;;16.07;;
15944;SDS011;30172;48.832;8.732;2023-02-07T06:43:58;22.07;;;15.10;;
15944;SDS011;30172;48.832;8.732;2023-02-07T06:46:24;18.97;;;14.20;;
15944;SDS011;30172;48.832;8.732;2023-02-07T06:48:49;23.00;;;15.87;;
15944;SDS011;30172;48.832;8.732;2023-02-07T06:51:14;22.63;;;15.87;;
15944;SDS011;30172;48.832;8.732;2023-02-07T06:53:40;23.97;;;15.73;;
15944;SDS011;30172;48.832;8.732;2023-02-07T06:56:08;20.97;;;16.07;;
15944;SDS011;30172;48.832;8.732;2023-02-07T06:58:33;23.40;;;15.80;;
15944;SDS011;30172;48.832;8.732;2023-02-07T07:01:02;22.77;;;15.77;;
15944;SDS011;30172;48.832;8.732;2023-02-07T07:03:28;22.33;;;15.43;;
15944;SDS011;30172;48.832;8.732;2023-02-07T07:05:53;22.47;;;15.63;;
15944;SDS011;30172;48.832;8.732;2023-02-07T07:08:20;22.63;;;15.50;;
15944;SDS011;30172;48.832;8.732;2023-02-07T07:10:45;25.20;;;16.97;;
15944;SDS011;30172;48.832;8.732;2023-02-07T07:13:11;23.93;;;16.07;;
15944;SDS011;30172;48.832;8.732;2023-02-07T07:15:36;22.83;;;15.87;;
15944;SDS011;30172;48.832;8.732;2023-02-07T07:18:01;23.00;;;15.73;;
15944;SDS011;30172;48.832;8.732;2023-02-07T07:20:27;27.40;;;15.97;;
15944;SDS011;30172;48.832;8.732;2023-02-07T07:22:52;21.23;;;15.53;;
15944;SDS011;30172;48.832;8.732;2023-02-07T07:25:17;24.37;;;17.47;;
15944;SDS011;30172;48.832;8.732;2023-02-07T07:27:43;23.63;;;16.47;;
15944;SDS011;30172;48.832;8.732;2023-02-07T07:30:09;25.90;;;15.10;;
15944;SDS011;30172;48.832;8.732;2023-02-07T07:32:35;24.37;;;15.83;;
15944;SDS011;30172;48.832;8.732;2023-02-07T07:35:00;23.83;;;15.97;;
15944;SDS011;30172;48.832;8.732;2023-02-07T07:37:26;21.37;;;14.97;;
15944;SDS011;30172;48.832;8.732;2023-02-07T07:39:51;21.23;;;14.90;;
15944;SDS011;30172;48.832;8.732;2023-02-07T07:42:17;24.93;;;16.33;;
15944;SDS011;30172;48.832;8.732;2023-02-07T07:44:42;27.83;;;15.10;;
15944;SDS011;30172;48.832;8.732;2023-02-07T07:47:07;22.77;;;14.37;;
15944;SDS011;30172;48.832;8.732;2023-02-07T07:49:33;22.10;;;15.67;;
15944;SDS011;30172;48.832;8.732;2023-02-07T07:51:58;24.87;;;16.87;;
15944;SDS011;30172;48.832;8.732;2023-02-07T07:54:23;23.27;;;15.03;;
15944;SDS011;30172;48.832;8.732;2023-02-07T07:56:49;20.40;;;14.87;;
15944;SDS011;30172;48.832;8.732;2023-02-07T07:59:14;22.27;;;15.23;;
15944;SDS011;30172;48.832;8.732;2023-02-07T08:01:40;23.20;;;14.50;;
15944;SDS011;30172;48.832;8.732;2023-02-07T08:04:05;21.60;;;15.03;;
15944;SDS011;30172;48.832;8.732;2023-02-07T08:06:31;19.90;;;13.87;;
15944;SDS011;30172;48.832;8.732;2023-02-07T08:08:56;19.80;;;13.87;;
15944;SDS011;30172;48.832;8.732;2023-02-07T08:11:22;21.23;;;14.07;;
15944;SDS011;30172;48.832;8.732;2023-02-07T08:13:47;23.03;;;14.90;;
15944;SDS011;30172;48.832;8.732;2023-02-07T08:16:14;21.97;;;13.80;;
15944;SDS011;30172;48.832;8.732;2023-02-07T08:18:40;19.60;;;14.23;;
15944;SDS011;30172;48.832;8.732;2023-02-07T08:21:06;22.17;;;14.73;;
15944;SDS011;30172;48.832;8.732;2023-02-07T08:23:34;18.70;;;13.03;;
15944;SDS011;30172;48.832;8.732;2023-02-07T08:25:59;21.27;;;13.17;;
15944;SDS011;30172;48.832;8.732;2023-02-07T08:28:25;22.43;;;13.70;;
15944;SDS011;30172;48.832;8.732;2023-02-07T08:30:51;21.93;;;13.13;;
15944;SDS011;30172;48.832;8.732;2023-02-07T08:33:16;21.63;;;13.43;;
15944;SDS011;30172;48.832;8.732;2023-02-07T08:35:42;26.47;;;15.53;;
15944;SDS011;30172;48.832;8.732;2023-02-07T08:38:08;25.77;;;15.63;;
15944;SDS011;30172;48.832;8.732;2023-02-07T08:40:33;22.83;;;14.97;;
15944;SDS011;30172;48.832;8.732;2023-02-07T08:43:00;30.67;;;18.70;;
15944;SDS011;30172;48.832;8.732;2023-02-07T08:45:25;23.10;;;15.20;;
15944;SDS011;30172;48.832;8.732;2023-02-07T08:47:50;20.30;;;15.00;;
15944;SDS011;30172;48.832;8.732;2023-02-07T08:50:16;20.50;;;13.60;;
15944;SDS011;30172;48.832;8.732;2023-02-07T08:52:41;21.60;;;13.30;;
15944;SDS011;30172;48.832;8.732;2023-02-07T08:55:07;19.93;;;14.03;;
15944;SDS011;30172;48.832;8.732;2023-02-07T08:57:33;23.97;;;14.87;;
15944;SDS011;30172;48.832;8.732;2023-02-07T08:59:59;17.03;;;13.10;;
15944;SDS011;30172;48.832;8.732;2023-02-07T09:02:24;19.47;;;13.10;;
15944;SDS011;30172;48.832;8.732;2023-02-07T09:04:50;21.77;;;13.90;;
15944;SDS011;30172;48.832;8.732;2023-02-07T09:07:15;20.03;;;12.80;;
15944;SDS011;30172;48.832;8.732;2023-02-07T09:09:41;21.90;;;13.90;;
15944;SDS011;30172;48.832;8.732;2023-02-07T09:12:07;20.20;;;13.53;;
15944;SDS011;30172;48.832;8.732;2023-02-07T09:14:32;19.60;;;13.37;;
15944;SDS011;30172;48.832;8.732;2023-02-07T09:16:57;21.57;;;13.57;;
15944;SDS011;30172;48.832;8.732;2023-02-07T09:19:23;19.87;;;13.33;;
15944;SDS011;30172;48.832;8.732;2023-02-07T09:21:48;23.27;;;13.23;;
15944;SDS011;30172;48.832;8.732;2023-02-07T09:24:13;19.27;;;14.03;;
15944;SDS011;30172;48.832;8.732;2023-02-07T09:26:39;19.00;;;12.90;;
15944;SDS011;30172;48.832;8.732;2023-02-07T09:29:05;18.03;;;12.63;;
15944;SDS011;30172;48.832;8.732;2023-02-07T09:31:31;18.43;;;12.07;;
15944;SDS011;30172;48.832;8.732;2023-02-07T09:33:57;18.27;;;12.70;;
15944;SDS011;30172;48.832;8.732;2023-02-07T09:36:25;17.40;;;11.70;;
15944;SDS011;30172;48.832;8.732;2023-02-07T09:38:51;21.47;;;15.13;;
15944;SDS011;30172;48.832;8.732;2023-02-07T09:47:17;19.37;;;12.87;;
15944;SDS011;30172;48.832;8.732;2023-02-07T09:49:45;22.20;;;13.17;;
15944;SDS011;30172;48.832;8.732;2023-02-07T09:52:15;19.33;;;13.40;;
15944;SDS011;30172;48.832;8.732;2023-02-07T09:54:44;19.37;;;13.00;;
15944;SDS011;30172;48.832;8.732;2023-02-07T09:57:18;14.33;;;11.33;;
15944;SDS011;30172;48.832;8.732;2023-02-07T10:00:03;15.13;;;11.10;;
15944;SDS011;30172;48.832;8.732;2023-02-07T10:02:41;18.47;;;12.43;;
15944;SDS011;30172;48.832;8.732;2023-02-07T10:05:19;15.57;;;11.17;;
15944;SDS011;30172;48.832;8.732;2023-02-07T10:07:47;19.07;;;12.37;;
15944;SDS011;30172;48.832;8.732;2023-02-07T10:10:17;18.63;;;12.00;;
15944;SDS011;30172;48.832;8.732;2023-02-07T10:21:12;17.93;;;12.33;;
15944;SDS011;30172;48.832;8.732;2023-02-07T10:26:46;15.83;;;11.30;;
15944;SDS011;30172;48.832;8.732;2023-02-07T10:32:07;17.33;;;10.77;;
15944;SDS011;30172;48.832;8.732;2023-02-07T10:34:37;15.00;;;10.83;;
15944;SDS011;30172;48.832;8.732;2023-02-07T10:37:16;14.10;;;10.23;;
15944;SDS011;30172;48.832;8.732;2023-02-07T10:39:44;15.63;;;10.63;;
15944;SDS011;30172;48.832;8.732;2023-02-07T10:42:17;16.83;;;11.10;;
15944;SDS011;30172;48.832;8.732;2023-02-07T10:44:44;14.03;;;10.30;;
15944;SDS011;30172;48.832;8.732;2023-02-07T10:47:12;18.13;;;10.97;;
15944;SDS011;30172;48.832;8.732;2023-02-07T10:49:39;16.23;;;11.20;;
15944;SDS011;30172;48.832;8.732;2023-02-07T10:52:16;16.47;;;11.17;;
15944;SDS011;30172;48.832;8.732;2023-02-07T10:54:58;17.70;;;10.63;;
15944;SDS011;30172;48.832;8.732;2023-02-07T10:57:25;13.90;;;10.20;;
15944;SDS011;30172;48.832;8.732;2023-02-07T10:59:56;17.23;;;10.77;;
15944;SDS011;30172;48.832;8.732;2023-02-07T11:05:04;18.43;;;10.90;;
15944;SDS011;30172;48.832;8.732;2023-02-07T11:10:31;15.73;;;10.90;;
15944;SDS011;30172;48.832;8.732;2023-02-07T11:12:59;17.23;;;10.83;;
15944;SDS011;30172;48.832;8.732;2023-02-07T11:15:32;14.67;;;10.83;;
15944;SDS011;30172;48.832;8.732;2023-02-07T11:18:01;15.50;;;10.87;;
15944;SDS011;30172;48.832;8.732;2023-02-07T11:20:32;16.73;;;11.50;;
15944;SDS011;30172;48.832;8.732;2023-02-07T11:23:04;13.60;;;10.63;;
15944;SDS011;30172;48.832;8.732;2023-02-07T11:25:35;14.73;;;10.77;;
15944;SDS011;30172;48.832;8.732;2023-02-07T11:28:02;15.40;;;10.97;;
15944;SDS011;30172;48.832;8.732;2023-02-07T11:30:28;15.37;;;10.43;;
15944;SDS011;30172;48.832;8.732;2023-02-07T11:32:59;15.53;;;10.93;;
15944;SDS011;30172;48.832;8.732;2023-02-07T11:35:27;16.03;;;10.53;;
15944;SDS011;30172;48.832;8.732;2023-02-07T11:38:00;16.37;;;12.10;;
15944;SDS011;30172;48.832;8.732;2023-02-07T11:40:42;16.23;;;11.10;;
15944;SDS011;30172;48.832;8.732;2023-02-07T11:45:42;12.27;;;9.77;;
15944;SDS011;30172;48.832;8.732;2023-02-07T11:48:19;14.90;;;10.50;;
15944;SDS011;30172;48.832;8.732;2023-02-07T11:50:52;14.00;;;10.63;;
15944;SDS011;30172;48.832;8.732;2023-02-07T11:53:23;14.67;;;9.33;;
15944;SDS011;30172;48.832;8.732;2023-02-07T11:55:59;15.03;;;10.87;;
15944;SDS011;30172;48.832;8.732;2023-02-07T11:58:33;15.07;;;11.03;;
15944;SDS011;30172;48.832;8.732;2023-02-07T12:01:01;13.10;;;10.00;;
15944;SDS011;30172;48.832;8.732;2023-02-07T12:03:30;18.77;;;12.37;;
15944;SDS011;30172;48.832;8.732;2023-02-07T12:06:16;14.13;;;10.80;;
15944;SDS011;30172;48.832;8.732;2023-02-07T12:08:43;13.33;;;9.87;;
15944;SDS011;30172;48.832;8.732;2023-02-07T12:11:30;14.37;;;11.17;;
15944;SDS011;30172;48.832;8.732;2023-02-07T12:14:11;14.47;;;11.10;;
15944;SDS011;30172;48.832;8.732;2023-02-07T12:16:44;12.80;;;10.37;;
15944;SDS011;30172;48.832;8.732;2023-02-07T12:19:20;16.23;;;10.77;;
15944;SDS011;30172;48.832;8.732;2023-02-07T12:24:14;17.50;;;11.33;;
15944;SDS011;30172;48.832;8.732;2023-02-07T12:26:46;14.37;;;10.57;;
15944;SDS011;30172;48.832;8.732;2023-02-07T12:31:59;12.27;;;9.53;;
15944;SDS011;30172;48.832;8.732;2023-02-07T12:40:33;14.03;;;10.70;;
15944;SDS011;30172;48.832;8.732;2023-02-07T12:50:54;15.03;;;11.23;;
15944;SDS011;30172;48.832;8.732;2023-02-07T13:01:58;14.07;;;10.30;;
15944;SDS011;30172;48.832;8.732;2023-02-07T13:04:45;18.20;;;10.97;;
15944;SDS011;30172;48.832;8.732;2023-02-07T13:07:49;15.80;;;10.13;;
15944;SDS011;30172;48.832;8.732;2023-02-07T13:13:32;14.70;;;10.43;;
15944;SDS011;30172;48.832;8.732;2023-02-07T13:19:02;18.50;;;11.17;;
15944;SDS011;30172;48.832;8.732;2023-02-07T13:21:40;15.37;;;10.77;;
15944;SDS011;30172;48.832;8.732;2023-02-07T13:24:10;14.00;;;10.00;;
15944;SDS011;30172;48.832;8.732;2023-02-07T13:26:39;14.37;;;10.27;;
15944;SDS011;30172;48.832;8.732;2023-02-07T13:29:10;15.80;;;11.13;;
15944;SDS011;30172;48.832;8.732;2023-02-07T13:31:39;16.00;;;10.67;;
15944;SDS011;30172;48.832;8.732;2023-02-07T13:34:10;16.40;;;10.67;;
15944;SDS011;30172;48.832;8.732;2023-02-07T13:36:45;15.80;;;10.03;;
15944;SDS011;30172;48.832;8.732;2023-02-07T13:39:36;12.67;;;9.80;;
15944;SDS011;30172;48.832;8.732;2023-02-07T13:42:11;14.73;;;10.63;;
15944;SDS011;30172;48.832;8.732;2023-02-07T13:44:48;15.27;;;11.23;;
15944;SDS011;30172;48.832;8.732;2023-02-07T13:47:24;14.63;;;10.23;;
15944;SDS011;30172;48.832;8.732;2023-02-07T13:55:48;13.97;;;10.13;;
15944;SDS011;30172;48.832;8.732;2023-02-07T14:01:23;14.27;;;10.40;;
15944;SDS011;30172;48.832;8.732;2023-02-07T14:06:35;13.37;;;9.17;;
15944;SDS011;30172;48.832;8.732;2023-02-07T14:14:28;15.17;;;10.07;;
15944;SDS011;30172;48.832;8.732;2023-02-07T14:16:59;12.47;;;9.77;;
15944;SDS011;30172;48.832;8.732;2023-02-07T14:27:27;13.13;;;9.73;;
15944;SDS011;30172;48.832;8.732;2023-02-07T14:32:38;14.63;;;10.03;;
15944;SDS011;30172;48.832;8.732;2023-02-07T14:37:52;15.50;;;11.30;;
15944;SDS011;30172;48.832;8.732;2023-02-07T14:40:23;13.80;;;10.60;;
15944;SDS011;30172;48.832;8.732;2023-02-07T14:43:05;14.33;;;10.40;;
15944;SDS011;30172;48.832;8.732;2023-02-07T14:48:58;14.87;;;9.67;;
15944;SDS011;30172;48.832;8.732;2023-02-07T14:51:04;14.30;;;9.87;;
15944;SDS011;30172;48.832;8.732;2023-02-07T14:53:33;14.30;;;10.80;;
15944;SDS011;30172;48.832;8.732;2023-02-07T14:56:03;13.57;;;9.70;;
15944;SDS011;30172;48.832;8.732;2023-02-07T14:58:36;12.70;;;9.30;;
15944;SDS011;30172;48.832;8.732;2023-02-07T15:01:04;14.97;;;9.93;;
15944;SDS011;30172;48.832;8.732;2023-02-07T15:03:36;13.93;;;9.23;;
15944;SDS011;30172;48.832;8.732;2023-02-07T15:06:02;12.07;;;9.67;;
15944;SDS011;30172;48.832;8.732;2023-02-07T15:08:29;13.53;;;9.60;;
15944;SDS011;30172;48.832;8.732;2023-02-07T15:13:26;14.20;;;9.40;;
15944;SDS011;30172;48.832;8.732;2023-02-07T15:15:52;14.97;;;9.97;;
15944;SDS011;30172;48.832;8.732;2023-02-07T15:18:21;13.77;;;9.43;;
15944;SDS011;30172;48.832;8.732;2023-02-07T15:20:49;10.73;;;9.30;;
15944;SDS011;30172;48.832;8.732;2023-02-07T15:23:16;11.67;;;8.37;;
15944;SDS011;30172;48.832;8.732;2023-02-07T15:25:42;13.57;;;9.33;;
15944;SDS011;30172;48.832;8.732;2023-02-07T15:28:21;11.63;;;8.70;;
15944;SDS011;30172;48.832;8.732;2023-02-07T15:30:56;12.93;;;8.77;;
15944;SDS011;30172;48.832;8.732;2023-02-07T15:33:38;16.43;;;13.03;;
15944;SDS011;30172;48.832;8.732;2023-02-07T15:36:05;16.57;;;10.33;;
15944;SDS011;30172;48.832;8.732;2023-02-07T15:38:47;9.37;;;8.00;;
15944;SDS011;30172;48.832;8.732;2023-02-07T15:41:13;18.50;;;11.80;;
15944;SDS011;30172;48.832;8.732;2023-02-07T15:43:51;11.23;;;8.60;;
15944;SDS011;30172;48.832;8.732;2023-02-07T15:46:41;10.67;;;8.60;;
15944;SDS011;30172;48.832;8.732;2023-02-07T15:49:08;10.33;;;8.00;;
15944;SDS011;30172;48.832;8.732;2023-02-07T15:51:35;9.90;;;7.60;;
15944;SDS011;30172;48.832;8.732;2023-02-07T15:54:05;10.10;;;6.77;;
15944;SDS011;30172;48.832;8.732;2023-02-07T15:56:30;12.27;;;8.00;;
15944;SDS011;30172;48.832;8.732;2023-02-07T15:58:58;9.50;;;7.43;;
15944;SDS011;30172;48.832;8.732;2023-02-07T16:01:27;9.40;;;7.00;;
15944;SDS011;30172;48.832;8.732;2023-02-07T16:03:54;10.93;;;7.37;;
15944;SDS011;30172;48.832;8.732;2023-02-07T16:06:22;9.40;;;7.17;;
15944;SDS011;30172;48.832;8.732;2023-02-07T16:08:58;13.33;;;7.90;;
15944;SDS011;30172;48.832;8.732;2023-02-07T16:16:40;10.27;;;7.23;;
15944;SDS011;30172;48.832;8.732;2023-02-07T16:21:51;10.27;;;7.30;;
15944;SDS011;30172;48.832;8.732;2023-02-07T16:24:22;8.43;;;6.27;;
15944;SDS011;30172;48.832;8.732;2023-02-07T16:26:48;9.90;;;6.57;;
15944;SDS011;30172;48.832;8.732;2023-02-07T16:29:15;8.23;;;6.43;;
15944;SDS011;30172;48.832;8.732;2023-02-07T16:31:45;24.97;;;12.87;;
15944;SDS011;30172;48.832;8.732;2023-02-07T16:34:11;29.03;;;14.00;;
15944;SDS011;30172;48.832;8.732;2023-02-07T16:36:37;9.27;;;7.00;;
15944;SDS011;30172;48.832;8.732;2023-02-07T16:39:03;9.03;;;6.10;;
15944;SDS011;30172;48.832;8.732;2023-02-07T16:41:28;8.83;;;6.53;;
15944;SDS011;30172;48.832;8.732;2023-02-07T16:43:56;9.27;;;6.23;;
15944;SDS011;30172;48.832;8.732;2023-02-07T16:46:22;8.67;;;6.33;;
15944;SDS011;30172;48.832;8.732;2023-02-07T16:48:48;9.60;;;6.30;;
15944;SDS011;30172;48.832;8.732;2023-02-07T16:51:13;9.03;;;5.83;;